Time;durP1;ratioP1;P1;durP2;ratioP2;P2;SDS_P1;SDS_P2;PMS_P1;PMS_P2;Temp;Humidity;BMP_temperature;BMP_pressure;BME280_temperature;BME280_humidity;BME280_pressure;Samples;Min_cycle;Max_cycle;Signal;HPM_P1;HPM_P2
2023/09/14 07:19:10;;;;;;;1.83;0.30;;;21.80;82.30;;;;;;6465184;27;20333;-48
2023/09/14 07:45:24;;;;;;;1.20;0.47;;;22.90;81.60;;;;;;6436020;27;20785;-55
2023/09/14 07:48:33;;;;;;;0.50;0.40;;;23.00;76.10;;;;;;7478134;22;20018;31
2023/09/14 07:55:06;;;;;;;0.52;0.40;;;24.70;71.10;;;;;;6626995;22;20079;-55
2023/09/14 15:53:08;;;;;;;1.45;0.40;;;23.90;66.80;;;;;;6441131;27;20301;-49
2023/09/14 15:56:15;;;;;;;0.90;0.40;;;24.20;61.30;;;;;;6419897;27;20055;-52
2023/09/14 15:59:17;;;;;;;0.75;0.40;;;23.70;59.30;;;;;;6402380;27;20530;-50
2023/09/14 16:02:18;;;;;;;2.05;0.43;;;23.90;58.30;;;;;;6411271;27;20030;-51
2023/09/14 16:05:20;;;;;;;0.68;0.50;;;24.50;57.50;;;;;;6413270;27;20052;-46
2023/09/14 16:08:22;;;;;;;0.90;0.40;;;24.70;56.70;;;;;;6405695;27;20042;-51
2023/09/14 16:11:26;;;;;;;0.40;0.40;;;24.70;56.10;;;;;;6400000;27;20042;-50
2023/09/14 16:14:28;;;;;;;0.93;0.70;;;24.60;53.00;;;;;;6410880;27;20037;-49
2023/09/14 16:17:30;;;;;;;0.80;0.57;;;23.90;54.40;;;;;;6415763;27;20073;-52
2023/09/14 16:20:33;;;;;;;0.88;0.50;;;24.90;54.40;;;;;;6405308;27;20098;-49
2023/09/14 16:23:35;;;;;;;0.77;0.70;;;25.00;54.10;;;;;;6404277;27;20117;-53
2023/09/14 16:26:39;;;;;;;0.80;0.60;;;25.10;53.70;;;;;;6418461;27;20098;-51
2023/09/14 16:29:43;;;;;;;0.77;0.60;;;25.20;53.90;;;;;;6419421;27;20034;-53
2023/09/14 16:32:44;;;;;;;0.73;0.45;;;25.00;53.20;;;;;;6418407;27;20601;-51
2023/09/14 16:35:47;;;;;;;0.55;0.50;;;25.20;53.00;;;;;;6403438;27;20105;-54
2023/09/14 16:38:49;;;;;;;0.50;0.50;;;25.30;52.50;;;;;;6396904;27;20220;-53
2023/09/14 16:41:51;;;;;;;0.60;0.40;;;25.30;52.30;;;;;;6388220;27;20034;-53
2023/09/14 16:44:52;;;;;;;1.10;0.50;;;25.50;52.00;;;;;;6387193;27;20038;-49
2023/09/14 16:47:56;;;;;;;1.42;0.40;;;25.50;51.70;;;;;;6392582;27;20065;-52
2023/09/14 16:50:58;;;;;;;0.47;0.40;;;25.50;51.40;;;;;;6395385;27;20030;-51
2023/09/14 16:54:00;;;;;;;0.50;0.30;;;25.50;51.10;;;;;;6362836;27;20725;-48
2023/09/14 16:57:04;;;;;;;0.30;0.30;;;25.30;50.60;;;;;;6362127;27;20663;-50
2023/09/14 17:00:13;;;;;;;0.30;0.30;;;25.70;50.70;;;;;;6366846;27;20078;-50
2023/09/14 17:03:15;;;;;;;0.30;0.28;;;25.70;50.30;;;;;;6359370;27;20026;-51
2023/09/14 17:06:16;;;;;;;0.30;0.30;;;25.70;50.30;;;;;;6365755;27;20038;-54
2023/09/14 17:09:18;;;;;;;0.43;0.25;;;24.60;49.00;;;;;;6384732;27;20031;-55
2023/09/14 17:12:20;;;;;;;0.20;0.20;;;25.60;49.50;;;;;;6384208;27;20580;-55
2023/09/14 17:15:23;;;;;;;0.30;0.20;;;25.80;49.50;;;;;;6383528;27;20038;-52
2023/09/14 17:18:25;;;;;;;0.30;0.28;;;25.80;49.30;;;;;;6382040;27;20035;-55
2023/09/14 17:21:28;;;;;;;0.43;0.38;;;25.50;49.10;;;;;;6385497;27;20043;-54
2023/09/14 17:24:31;;;;;;;0.60;0.40;;;25.30;48.70;;;;;;6386466;27;20030;-54
2023/09/14 17:27:33;;;;;;;0.38;0.32;;;25.80;48.90;;;;;;6383556;27;20638;-52
2023/09/14 17:30:34;;;;;;;0.47;0.30;;;25.40;48.60;;;;;;6386297;27;20034;-54
2023/09/14 17:33:36;;;;;;;0.30;0.25;;;25.40;48.60;;;;;;6386321;27;20091;-53
2023/09/14 17:36:38;;;;;;;0.30;0.20;;;25.80;48.80;;;;;;6385048;27;20147;-52
2023/09/14 17:39:41;;;;;;;0.32;0.30;;;25.70;48.50;;;;;;6386654;27;20425;-53
2023/09/14 17:42:43;;;;;;;0.35;0.30;;;24.80;47.90;;;;;;6384583;27;20039;-55
2023/09/14 17:45:45;;;;;;;0.20;0.20;;;25.80;48.30;;;;;;6387500;27;20043;-54
2023/09/14 17:48:46;;;;;;;0.10;0.10;;;25.70;48.60;;;;;;6385935;27;20043;-55
2023/09/14 17:51:48;;;;;;;0.40;0.30;;;25.80;48.60;;;;;;6385939;27;20039;-52
2023/09/14 17:54:50;;;;;;;0.47;0.20;;;25.80;48.60;;;;;;6389044;27;20663;-53
2023/09/14 17:57:52;;;;;;;0.30;0.30;;;25.60;48.40;;;;;;6387166;27;20054;-54
2023/09/14 18:00:54;;;;;;;0.40;0.30;;;25.60;48.80;;;;;;6386098;27;20031;-55
2023/09/14 18:03:56;;;;;;;0.20;0.20;;;25.40;48.60;;;;;;6389337;27;20031;-49
2023/09/14 18:06:58;;;;;;;0.30;0.20;;;25.60;48.90;;;;;;6389833;27;20038;-55
2023/09/14 18:10:00;;;;;;;0.32;0.30;;;25.50;49.10;;;;;;6388909;27;20035;-54
2023/09/14 18:13:02;;;;;;;0.63;0.40;;;25.60;49.30;;;;;;6387409;27;20109;-54
2023/09/14 18:16:06;;;;;;;0.30;0.20;;;25.50;49.50;;;;;;6387429;27;20039;-53
2023/09/14 18:19:14;;;;;;;0.40;0.32;;;25.50;49.70;;;;;;6389495;27;20039;-54
2023/09/14 18:22:16;;;;;;;0.32;0.25;;;25.40;49.80;;;;;;6389382;27;20539;-52
2023/09/14 18:25:19;;;;;;;0.50;0.30;;;25.50;50.20;;;;;;6387986;27;20042;-52
2023/09/14 18:28:20;;;;;;;0.60;0.38;;;25.30;49.90;;;;;;6386638;27;20035;-52
2023/09/14 18:31:22;;;;;;;0.40;0.30;;;25.40;50.30;;;;;;6386812;27;20034;-54
2023/09/14 18:34:24;;;;;;;0.52;0.32;;;25.30;50.30;;;;;;6387514;27;20440;-52
2023/09/14 18:37:26;;;;;;;0.43;0.30;;;25.10;50.30;;;;;;6387935;27;20042;-52
2023/09/14 18:40:29;;;;;;;0.57;0.38;;;25.30;50.70;;;;;;6389305;27;20039;-54
2023/09/14 18:43:31;;;;;;;0.68;0.40;;;24.90;50.70;;;;;;6389162;27;20035;-53
2023/09/14 18:46:34;;;;;;;0.50;0.30;;;25.20;51.00;;;;;;6388573;27;20149;-54
2023/09/14 18:49:35;;;;;;;0.57;0.40;;;25.20;51.50;;;;;;6388672;27;20058;-54
2023/09/14 18:52:38;;;;;;;0.40;0.38;;;25.30;51.80;;;;;;6303151;27;21061;-54
2023/09/14 18:55:48;;;;;;;0.50;0.32;;;24.30;51.60;;;;;;6382405;27;20035;-54
2023/09/14 18:58:49;;;;;;;0.60;0.50;;;25.10;52.10;;;;;;6382602;27;20031;-54
2023/09/14 19:02:13;;;;;;;0.40;0.38;;;25.00;52.40;;;;;;6368059;27;20058;-52
2023/09/14 19:05:17;;;;;;;0.57;0.30;;;24.90;52.60;;;;;;6382952;27;20074;-52
2023/09/14 19:08:19;;;;;;;0.57;0.38;;;25.00;52.80;;;;;;6386511;27;20454;-52
2023/09/14 19:11:23;;;;;;;0.43;0.30;;;25.10;53.70;;;;;;6388210;27;20077;-54
2023/09/14 19:14:25;;;;;;;0.47;0.30;;;25.00;53.30;;;;;;6387126;27;20668;-53
2023/09/14 19:17:27;;;;;;;0.50;0.50;;;24.90;53.60;;;;;;6387526;27;20643;-55
2023/09/14 19:20:30;;;;;;;0.40;0.35;;;25.00;53.70;;;;;;6388175;27;20556;-53
2023/09/14 19:23:32;;;;;;;0.40;0.40;;;24.70;53.50;;;;;;6388118;27;20039;-54
2023/09/14 19:26:34;;;;;;;0.38;0.30;;;24.60;53.90;;;;;;6386527;27;20043;-51
2023/09/14 19:29:35;;;;;;;0.47;0.40;;;24.70;54.00;;;;;;6389714;27;20038;-53
2023/09/14 19:32:40;;;;;;;0.68;0.50;;;25.00;55.00;;;;;;6387988;27;20038;-50
2023/09/14 19:35:42;;;;;;;0.40;0.30;;;24.90;54.20;;;;;;6386366;27;20091;-52
2023/09/14 19:38:43;;;;;;;0.52;0.40;;;24.60;54.30;;;;;;6388579;27;20041;-52
2023/09/14 19:41:47;;;;;;;0.20;0.20;;;24.90;54.60;;;;;;6388738;27;20071;-53
2023/09/14 19:44:49;;;;;;;0.30;0.30;;;24.80;54.60;;;;;;6388454;27;20405;-49
2023/09/14 19:47:51;;;;;;;0.50;0.32;;;24.80;54.60;;;;;;6388856;27;20062;-50
2023/09/14 19:50:54;;;;;;;0.43;0.30;;;24.90;54.90;;;;;;6388503;27;20034;-53
2023/09/14 19:53:55;;;;;;;0.20;0.20;;;24.70;54.80;;;;;;6389419;27;20039;-50
2023/09/14 19:56:57;;;;;;;0.30;0.28;;;24.70;55.00;;;;;;6387882;27;20039;-50
2023/09/14 19:59:59;;;;;;;0.30;0.30;;;24.80;55.00;;;;;;6389342;27;20599;-52
2023/09/14 20:03:00;;;;;;;0.50;0.40;;;24.60;55.10;;;;;;6388249;27;20389;-47
2023/09/14 20:06:02;;;;;;;0.40;0.30;;;24.80;55.40;;;;;;6388604;27;20110;-51
2023/09/14 20:09:06;;;;;;;0.60;0.43;;;24.70;55.40;;;;;;6386002;27;20046;-54
2023/09/14 20:12:08;;;;;;;0.35;0.30;;;24.50;55.30;;;;;;6388915;27;20707;-54
2023/09/14 20:15:11;;;;;;;0.43;0.30;;;24.70;55.30;;;;;;6389982;27;20061;-53
2023/09/14 20:18:13;;;;;;;0.30;0.30;;;24.80;55.40;;;;;;6371561;27;20524;-53
2023/09/14 20:21:14;;;;;;;0.45;0.38;;;24.70;55.70;;;;;;6389299;27;20035;-51
2023/09/14 20:24:16;;;;;;;0.40;0.30;;;24.90;55.70;;;;;;6389835;27;20043;-54
2023/09/14 20:27:18;;;;;;;0.30;0.30;;;24.80;55.80;;;;;;6389155;27;20037;-54
2023/09/14 20:30:20;;;;;;;0.57;0.47;;;24.70;55.50;;;;;;6389739;27;20039;-54
2023/09/14 20:33:21;;;;;;;0.40;0.30;;;24.70;55.80;;;;;;6388236;27;20397;-53
2023/09/14 20:36:30;;;;;;;0.47;0.40;;;24.30;55.60;;;;;;6388926;27;20741;-53
2023/09/14 20:39:31;;;;;;;0.35;0.30;;;24.80;55.80;;;;;;6392898;27;20394;-54
2023/09/14 20:42:34;;;;;;;0.52;0.40;;;25.00;56.20;;;;;;6392876;27;20069;-51
2023/09/14 20:45:38;;;;;;;0.20;0.20;;;24.70;55.90;;;;;;6393550;27;20041;-49
2023/09/14 20:48:40;;;;;;;0.30;0.30;;;24.70;55.90;;;;;;6393916;27;20438;-54
2023/09/14 20:51:44;;;;;;;0.45;0.30;;;24.70;56.10;;;;;;6375008;27;20073;-53
2023/09/14 20:54:45;;;;;;;0.40;0.40;;;24.60;56.30;;;;;;6393186;27;20126;-54
2023/09/14 20:57:55;;;;;;;0.30;0.30;;;24.70;56.30;;;;;;6392888;27;20059;-54
2023/09/14 21:00:58;;;;;;;0.50;0.50;;;24.50;56.20;;;;;;6393315;27;20091;-53
2023/09/14 21:04:00;;;;;;;0.50;0.30;;;24.70;56.40;;;;;;6392439;27;20729;-52
2023/09/14 21:07:01;;;;;;;0.73;0.38;;;24.80;56.30;;;;;;6392445;27;20099;-54
2023/09/14 21:10:03;;;;;;;0.47;0.32;;;24.70;56.50;;;;;;6394335;27;20035;-53
2023/09/14 21:13:06;;;;;;;0.35;0.30;;;24.60;56.30;;;;;;6394104;27;20046;-54
2023/09/14 21:16:08;;;;;;;0.45;0.40;;;25.20;56.80;;;;;;6393453;27;20629;-53
2023/09/14 21:19:10;;;;;;;0.32;0.30;;;24.60;56.50;;;;;;6393391;27;20610;-53
2023/09/14 21:22:11;;;;;;;0.47;0.30;;;24.50;56.50;;;;;;6393742;27;20046;-53
2023/09/14 21:25:13;;;;;;;0.55;0.40;;;24.60;56.50;;;;;;6394004;27;20041;-54
2023/09/14 21:28:15;;;;;;;0.40;0.40;;;24.60;56.70;;;;;;6392920;27;20035;-52
2023/09/14 21:31:18;;;;;;;0.43;0.30;;;24.60;56.70;;;;;;6393917;27;20031;-53
2023/09/14 21:34:19;;;;;;;0.40;0.40;;;24.60;56.90;;;;;;6393277;27;20038;-53
2023/09/14 21:37:21;;;;;;;0.52;0.30;;;24.50;56.80;;;;;;6393115;27;20039;-51
2023/09/14 21:40:22;;;;;;;0.22;0.20;;;24.50;56.90;;;;;;6393210;27;20051;-53
2023/09/14 21:43:26;;;;;;;0.50;0.50;;;24.10;56.80;;;;;;6393255;27;20041;-54
2023/09/14 21:46:29;;;;;;;0.40;0.40;;;24.50;57.20;;;;;;6392776;27;20404;-53
2023/09/14 21:49:33;;;;;;;0.40;0.40;;;24.50;57.10;;;;;;6392233;27;20065;-52
2023/09/14 21:52:34;;;;;;;0.47;0.30;;;24.50;57.00;;;;;;6391828;27;20088;-54
2023/09/14 21:55:36;;;;;;;0.20;0.20;;;24.50;57.20;;;;;;6392136;27;20606;-53
2023/09/14 21:58:40;;;;;;;0.40;0.20;;;24.60;57.30;;;;;;6392411;27;20043;-53
2023/09/14 22:01:42;;;;;;;0.40;0.40;;;24.50;57.00;;;;;;6391773;27;20038;-53
2023/09/14 22:04:43;;;;;;;0.50;0.30;;;24.30;57.20;;;;;;6391130;27;20039;-54
2023/09/14 22:07:46;;;;;;;0.40;0.30;;;24.50;57.30;;;;;;6391362;27;20113;-53
2023/09/14 22:10:47;;;;;;;0.35;0.35;;;25.20;58.70;;;;;;6389807;27;20663;-53
2023/09/14 22:13:50;;;;;;;0.40;0.40;;;24.50;57.30;;;;;;6392458;27;20031;-53
2023/09/14 22:16:52;;;;;;;0.40;0.30;;;24.60;57.30;;;;;;6391719;27;20485;-54
2023/09/14 22:19:54;;;;;;;0.43;0.20;;;24.10;57.00;;;;;;6392125;27;20535;-52
2023/09/14 22:22:56;;;;;;;0.40;0.40;;;24.50;57.30;;;;;;6391219;27;20035;-52
2023/09/14 22:25:58;;;;;;;0.40;0.40;;;24.40;57.20;;;;;;6391330;27;20038;-53
2023/09/14 22:29:00;;;;;;;0.50;0.38;;;24.50;57.60;;;;;;6392834;27;20627;-54
2023/09/14 22:32:06;;;;;;;0.35;0.30;;;24.30;57.30;;;;;;6391985;27;20035;-51
2023/09/14 22:35:10;;;;;;;1.05;0.47;;;24.30;57.50;;;;;;6392156;27;20047;-52
2023/09/14 22:38:14;;;;;;;0.45;0.45;;;24.40;57.30;;;;;;6374475;27;20066;-53
2023/09/14 22:41:16;;;;;;;0.55;0.40;;;24.30;57.50;;;;;;6392066;27;20039;-54
2023/09/14 22:44:18;;;;;;;0.50;0.40;;;24.40;57.40;;;;;;6391654;27;20065;-53
2023/09/14 22:47:20;;;;;;;0.70;0.40;;;24.30;57.50;;;;;;6390833;27;20035;-53
2023/09/14 22:50:21;;;;;;;0.68;0.40;;;24.20;57.30;;;;;;6390733;27;20027;-53
2023/09/14 22:53:23;;;;;;;0.30;0.30;;;24.10;57.40;;;;;;6390720;27;20676;-53
2023/09/14 22:56:24;;;;;;;0.45;0.30;;;24.40;57.50;;;;;;6391419;27;20027;-53
2023/09/14 22:59:27;;;;;;;0.45;0.38;;;24.40;57.60;;;;;;6391073;27;20493;-52
2023/09/14 23:02:28;;;;;;;0.30;0.30;;;24.30;57.40;;;;;;6390176;27;20035;-52
2023/09/14 23:05:30;;;;;;;0.43;0.32;;;24.20;57.50;;;;;;6391810;27;20039;-53
2023/09/14 23:08:32;;;;;;;0.50;0.30;;;24.50;57.70;;;;;;6391573;27;20041;-54
2023/09/14 23:11:40;;;;;;;0.38;0.38;;;24.30;57.40;;;;;;6391529;27;20038;-53
2023/09/14 23:14:42;;;;;;;0.60;0.50;;;24.30;57.40;;;;;;6391356;27;20038;-53
2023/09/14 23:17:43;;;;;;;0.55;0.30;;;24.30;57.60;;;;;;6391666;27;20584;-51
2023/09/14 23:20:46;;;;;;;0.50;0.50;;;24.20;57.50;;;;;;6391691;27;20109;-53
2023/09/14 23:23:49;;;;;;;0.43;0.38;;;24.30;57.40;;;;;;6390651;27;20046;-52
2023/09/14 23:26:52;;;;;;;0.60;0.40;;;24.30;57.30;;;;;;6388621;27;20035;-52
2023/09/14 23:29:54;;;;;;;0.70;0.50;;;23.90;57.20;;;;;;6388261;27;20473;-51
2023/09/14 23:32:56;;;;;;;0.40;0.40;;;24.10;57.30;;;;;;6388938;27;20035;-52
2023/09/14 23:35:58;;;;;;;0.68;0.55;;;24.20;57.30;;;;;;6370917;27;20532;-53
2023/09/14 23:39:00;;;;;;;0.90;0.60;;;23.80;57.30;;;;;;6389585;27;20038;-53
2023/09/14 23:42:02;;;;;;;0.40;0.40;;;24.30;57.40;;;;;;6388541;27;20049;-53
2023/09/14 23:45:05;;;;;;;0.40;0.40;;;24.30;57.50;;;;;;6388578;27;20027;-53
2023/09/14 23:48:08;;;;;;;0.40;0.40;;;24.20;57.30;;;;;;6387038;27;20116;-50
2023/09/14 23:51:09;;;;;;;0.47;0.30;;;24.10;57.10;;;;;;6385416;27;20065;-53
2023/09/14 23:54:11;;;;;;;0.95;0.50;;;24.20;57.50;;;;;;6389804;27;20641;-53
2023/09/14 23:57:13;;;;;;;0.60;0.50;;;24.10;57.30;;;;;;6370759;27;20035;-50
